createdAt,value
2019-01-27T00:03:34.038Z,4.50
2019-01-27T00:08:37.331Z,4.87
2019-01-27T00:13:40.525Z,3.50
2019-01-27T00:18:43.844Z,5.67
2019-01-27T00:23:47.090Z,3.93
2019-01-27T00:28:50.306Z,5.57
2019-01-27T00:33:53.516Z,5.70
2019-01-27T00:38:56.782Z,4.10
2019-01-27T00:44:00.034Z,4.60
2019-01-27T00:49:03.291Z,4.40
2019-01-27T00:54:06.587Z,4.40
2019-01-27T00:59:09.800Z,4.20
2019-01-27T01:04:12.985Z,4.73
2019-01-27T01:09:16.253Z,5.80
2019-01-27T01:14:19.459Z,3.90
2019-01-27T01:19:22.765Z,5.00
2019-01-27T01:24:25.981Z,4.83
2019-01-27T01:29:29.173Z,4.63
2019-01-27T01:34:32.382Z,5.47
2019-01-27T01:39:35.573Z,4.83
2019-01-27T01:44:38.918Z,4.47
2019-01-27T01:49:42.141Z,4.83
2019-01-27T01:54:45.394Z,4.57
2019-01-27T01:59:48.582Z,4.65
2019-01-27T02:04:51.805Z,4.60
2019-01-27T02:09:54.994Z,5.37
2019-01-27T02:14:58.202Z,4.63
2019-01-27T02:20:01.488Z,6.07
2019-01-27T02:25:04.809Z,4.25
2019-01-27T02:30:08.767Z,3.97
2019-01-27T02:35:12.062Z,3.73
2019-01-27T02:40:15.345Z,4.27
2019-01-27T02:45:18.607Z,3.70
2019-01-27T02:50:21.871Z,4.87
2019-01-27T02:55:29.004Z,4.77
2019-01-27T03:00:32.270Z,4.97
2019-01-27T03:05:42.623Z,4.47
2019-01-27T03:10:45.883Z,3.53
2019-01-27T03:15:49.120Z,3.57
2019-01-27T03:20:52.412Z,3.17
2019-01-27T03:25:55.662Z,3.93
2019-01-27T03:30:58.855Z,3.25
2019-01-27T03:36:02.089Z,4.30
2019-01-27T03:41:05.404Z,3.23
2019-01-27T03:46:08.611Z,2.10
2019-01-27T03:51:11.819Z,3.20
2019-01-27T03:56:15.099Z,4.93
2019-01-27T04:01:18.272Z,3.03
2019-01-27T04:06:21.506Z,4.73
2019-01-27T04:11:24.698Z,2.40
2019-01-27T04:16:27.893Z,3.23
2019-01-27T04:21:31.066Z,3.63
2019-01-27T04:26:35.346Z,2.90
2019-01-27T04:31:38.579Z,4.17
2019-01-27T04:36:41.771Z,2.93
2019-01-27T04:41:45.019Z,3.10
2019-01-27T04:46:48.229Z,3.77
2019-01-27T04:51:51.801Z,2.77
2019-01-27T04:56:55.134Z,2.47
2019-01-27T05:01:58.325Z,2.17
2019-01-27T05:07:01.676Z,3.02
2019-01-27T05:12:05.368Z,2.13
2019-01-27T05:17:08.551Z,3.47
2019-01-27T05:22:11.822Z,1.47
2019-01-27T05:27:15.126Z,3.20
2019-01-27T05:32:18.319Z,2.80
2019-01-27T05:37:21.581Z,1.50
2019-01-27T05:42:24.774Z,1.83
2019-01-27T05:47:28.009Z,1.07
2019-01-27T05:52:31.260Z,3.50
2019-01-27T05:57:34.718Z,3.33
2019-01-27T06:02:38.213Z,2.70
2019-01-27T06:07:41.422Z,2.17
2019-01-27T06:12:44.754Z,1.93
2019-01-27T06:17:47.977Z,3.50
2019-01-27T06:22:51.194Z,1.57
2019-01-27T06:27:54.374Z,2.90
2019-01-27T06:33:19.921Z,3.40
2019-01-27T06:38:26.191Z,2.30
2019-01-27T06:43:29.406Z,2.30
2019-01-27T06:48:32.650Z,2.63
2019-01-27T06:53:35.851Z,1.93
2019-01-27T06:58:44.213Z,2.90
2019-01-27T07:03:53.723Z,3.60
2019-01-27T07:09:05.139Z,3.53
2019-01-27T07:14:12.424Z,1.47
2019-01-27T07:19:20.697Z,3.17
2019-01-27T07:24:37.949Z,1.47
2019-01-27T07:29:46.234Z,3.37
2019-01-27T07:34:54.702Z,2.00
2019-01-27T07:40:05.917Z,2.42
2019-01-27T07:45:47.734Z,2.60
2019-01-27T07:50:56.290Z,3.27
2019-01-27T07:56:04.484Z,2.30
2019-01-27T08:01:13.824Z,3.63
2019-01-27T08:06:22.125Z,2.43
2019-01-27T08:11:31.417Z,2.47
2019-01-27T08:16:39.869Z,2.50
2019-01-27T08:21:48.385Z,2.60
2019-01-27T08:26:56.794Z,1.80
2019-01-27T08:32:19.189Z,3.97
2019-01-27T08:37:26.646Z,1.30
2019-01-27T08:42:35.169Z,2.23
2019-01-27T08:47:38.371Z,2.47
2019-01-27T08:52:41.581Z,2.67
2019-01-27T08:57:44.918Z,3.97
2019-01-27T09:02:53.341Z,2.27
2019-01-27T09:08:01.759Z,2.63
2019-01-27T09:13:11.392Z,2.33
2019-01-27T09:18:27.829Z,2.57
2019-01-27T09:23:35.222Z,2.27
2019-01-27T09:28:43.722Z,3.30
2019-01-27T09:33:52.143Z,2.03
2019-01-27T09:39:04.662Z,1.57
2019-01-27T09:46:20.330Z,2.20
2019-01-27T09:51:58.684Z,2.83
2019-01-27T09:57:24.342Z,1.70
2019-01-27T10:02:34.888Z,2.58
2019-01-27T10:07:43.086Z,2.40
2019-01-27T10:12:57.358Z,2.70
2019-01-27T10:18:36.938Z,2.60
2019-01-27T10:23:45.470Z,0.70
2019-01-27T10:28:57.106Z,2.17
2019-01-27T10:34:05.605Z,2.27
2019-01-27T10:39:14.731Z,2.30
2019-01-27T10:44:22.201Z,1.57
2019-01-27T10:49:30.523Z,2.23
2019-01-27T10:54:42.917Z,1.90
2019-01-27T10:59:54.240Z,1.03
2019-01-27T11:05:38.705Z,3.22
2019-01-27T11:10:53.189Z,2.17
2019-01-27T11:16:15.478Z,2.83
2019-01-27T11:21:38.833Z,1.40
2019-01-27T11:27:20.206Z,2.57
2019-01-27T11:32:28.842Z,2.00
2019-01-27T11:37:36.283Z,1.27
2019-01-27T11:42:44.859Z,1.77
2019-01-27T11:47:52.326Z,1.03
2019-01-27T11:52:59.573Z,1.93
2019-01-27T11:58:02.994Z,2.30
2019-01-27T12:03:06.322Z,2.53
2019-01-27T12:08:09.856Z,3.37
2019-01-27T12:13:13.159Z,1.87
2019-01-27T12:18:16.589Z,1.63
2019-01-27T12:23:19.987Z,3.47
2019-01-27T12:28:23.406Z,3.00
2019-01-27T12:33:26.813Z,2.70
2019-01-27T12:38:30.110Z,2.40
2019-01-27T12:43:33.415Z,2.13
2019-01-27T12:48:36.721Z,2.07
2019-01-27T12:53:40.219Z,2.30
2019-01-27T12:58:43.599Z,2.07
2019-01-27T13:03:46.951Z,2.13
2019-01-27T13:08:50.430Z,2.07
2019-01-27T13:13:53.841Z,2.00
2019-01-27T13:18:57.379Z,2.17
2019-01-27T13:24:00.786Z,1.23
2019-01-27T13:29:04.248Z,2.50
2019-01-27T13:34:07.654Z,2.53
2019-01-27T13:39:11.152Z,2.90
2019-01-27T13:44:14.687Z,2.40
2019-01-27T13:49:18.131Z,1.60
2019-01-27T13:54:21.593Z,1.60
2019-01-27T13:59:25.086Z,1.50
2019-01-27T14:04:28.535Z,2.37
2019-01-27T14:09:32.091Z,2.90
2019-01-27T14:14:35.449Z,1.67
2019-01-27T14:19:38.753Z,1.90
2019-01-27T14:24:42.125Z,1.80
2019-01-27T14:29:45.546Z,1.73
2019-01-27T14:34:49.102Z,1.13
2019-01-27T14:39:52.462Z,1.63
2019-01-27T14:44:55.804Z,1.47
2019-01-27T14:49:59.131Z,2.00
2019-01-27T14:55:02.448Z,2.10
2019-01-27T15:00:07.738Z,2.25
2019-01-27T15:05:11.962Z,2.30
2019-01-27T15:10:16.830Z,1.70
2019-01-27T15:15:20.485Z,2.10
2019-01-27T15:20:26.981Z,2.47
2019-01-27T15:25:30.479Z,2.00
2019-01-27T15:30:33.969Z,1.90
2019-01-27T15:35:37.318Z,2.40
2019-01-27T15:40:40.710Z,2.70
2019-01-27T15:45:44.022Z,2.30
2019-01-27T15:50:47.553Z,2.17
2019-01-27T15:55:50.950Z,2.57
2019-01-27T16:00:54.266Z,2.30
2019-01-27T16:05:57.605Z,2.27
2019-01-27T16:11:00.990Z,2.90
2019-01-27T16:16:04.652Z,2.67
2019-01-27T16:21:08.029Z,3.27
2019-01-27T16:26:14.173Z,3.03
2019-01-27T16:31:22.512Z,5.37
2019-01-27T16:36:25.862Z,3.60
2019-01-27T16:41:29.290Z,3.80
2019-01-27T16:46:32.590Z,4.10
2019-01-27T16:51:35.932Z,4.03
2019-01-27T16:56:39.368Z,4.57
2019-01-27T17:01:42.782Z,5.07
2019-01-27T17:06:46.161Z,5.47
2019-01-27T17:11:49.571Z,3.77
2019-01-27T17:16:52.969Z,2.80
2019-01-27T17:21:56.258Z,2.53
2019-01-27T17:26:59.554Z,2.00
2019-01-27T17:32:02.974Z,2.53
2019-01-27T17:37:06.278Z,2.57
2019-01-27T17:42:09.642Z,2.23
2019-01-27T17:47:12.986Z,3.50
2019-01-27T17:52:16.333Z,4.17
2019-01-27T17:57:33.683Z,3.13
2019-01-27T18:02:48.144Z,3.60
2019-01-27T18:07:55.642Z,3.87
2019-01-27T18:13:03.339Z,3.50
2019-01-27T18:18:06.771Z,3.20
2019-01-27T18:23:10.121Z,4.70
2019-01-27T18:28:14.528Z,4.50
2019-01-27T18:33:17.889Z,3.40
2019-01-27T18:38:21.328Z,2.77
2019-01-27T18:43:25.599Z,3.30
2019-01-27T18:48:28.928Z,2.90
2019-01-27T18:53:37.602Z,3.27
2019-01-27T19:00:49.150Z,3.20
2019-01-27T19:06:05.457Z,3.00
2019-01-27T19:11:13.948Z,2.93
2019-01-27T19:16:23.314Z,3.25
2019-01-27T19:21:32.802Z,2.50
2019-01-27T19:26:41.414Z,2.80
2019-01-27T19:31:53.847Z,3.00
2019-01-27T19:37:04.274Z,3.50
2019-01-27T19:42:12.036Z,2.97
2019-01-27T19:47:21.622Z,2.47
2019-01-27T19:52:34.099Z,3.60
2019-01-27T19:57:44.619Z,2.30
2019-01-27T20:02:53.321Z,3.73
2019-01-27T20:10:03.127Z,3.27
2019-01-27T20:15:14.145Z,3.25
2019-01-27T20:22:25.498Z,1.77
2019-01-27T20:27:38.599Z,1.60
2019-01-27T20:32:49.552Z,3.17
2019-01-27T20:40:05.111Z,2.57
2019-01-27T20:45:19.067Z,2.35
2019-01-27T20:50:32.645Z,2.17
2019-01-27T20:55:44.952Z,2.57
2019-01-27T21:00:59.861Z,2.27
2019-01-27T21:06:08.352Z,2.00
2019-01-27T21:11:19.213Z,1.97
2019-01-27T21:16:33.752Z,2.43
2019-01-27T21:21:37.133Z,2.70
2019-01-27T21:26:40.626Z,2.80
2019-01-27T21:31:43.905Z,2.20
2019-01-27T21:36:47.679Z,1.97
2019-01-27T21:41:51.191Z,1.80
2019-01-27T21:46:54.783Z,2.47
2019-01-27T21:51:58.436Z,2.17
2019-01-27T21:57:02.263Z,2.40
2019-01-27T22:02:06.059Z,2.57
2019-01-27T22:07:09.513Z,2.23
2019-01-27T22:12:13.056Z,2.40
2019-01-27T22:17:16.701Z,2.37
2019-01-27T22:22:20.006Z,1.67
2019-01-27T22:27:23.678Z,2.17
2019-01-27T22:32:27.262Z,2.20
2019-01-27T22:37:30.807Z,1.60
2019-01-27T22:42:34.318Z,1.53
2019-01-27T22:47:37.885Z,1.60
2019-01-27T22:52:41.124Z,1.73
2019-01-27T22:57:44.346Z,1.83
2019-01-27T23:02:47.529Z,2.10
2019-01-27T23:07:50.779Z,2.50
2019-01-27T23:12:53.967Z,1.63
2019-01-27T23:17:57.254Z,1.90
2019-01-27T23:23:00.451Z,2.53
2019-01-27T23:28:03.670Z,2.30
2019-01-27T23:33:06.895Z,1.70
2019-01-27T23:38:10.242Z,2.80
2019-01-27T23:43:14.271Z,2.03
2019-01-27T23:48:17.594Z,2.37
2019-01-27T23:53:20.822Z,1.87
2019-01-27T23:58:24.059Z,2.37
